Portada
METAR-TAF:

METAR-TAF

Aeroports :

Isbell Field

Fort Payne, Alabama, Estats Units d'Amèrica

latitud: 34-28-25N, longitud: 085-43-17W, altitud: 267 m

Observació

L'informe es va fer fa 25 minuts, a les 10:15 UTC
Vent calma
Temperatura 17°C
Humitat 100%
Pressió 1017 hPa
Visibilitat: 11.3 km
Núvols disperses a una alçada de 200 ft
Cel ennuvolat a una alçada de 3100 ft
Cel cobert a una alçada de 4700 ft
boirina

METAR: K4A9 261015Z AUTO 00000KT 7SM BR SCT002 BKN031 OVC047 17/17 A3004 RMK AO2 T01720168

Hora: 05:40 (10:40 UTC)


TAF: manca

Observacions i pronòstics meteorològics de més de 4000 aeroports (METAR i TAF).

Les estacions disponibles són els punts grocs i vermells al mapa.

Posi el ratolí al punt desitjat per veure el nom de l'estació.

Feu clic per veure les observacions i els pronòstics meteorològics.

Per canviar el mapa: feu clic els botons verds amb una creu de color negre per apropar; al botó verd amb un guió per allunyar la imatge; o en les fletxes verdes per a mapes adjacents.


METAR-TAF: